Accueil
METAR-TAF:

METAR-TAF

Aéroports :

Aéroport international Salgado Filho

Porto Alegre, Rio Grande do Sul, Brésil

latitude: 30-00S, longitude: 051-11W, altitude: 3 m

Observation

Le bulletin a été fait il y a 11 minutes, à 18:00 UTC
Vent calme
Température 20°C
Humidité 68%
Pression 1022 hPa
Visibilité 10 km ou plus
pas de nuages en-dessous de 1500 mètres et pas de cumulonimbus.

METAR: SBPA 191800Z 00000KT CAVOK 20/14 Q1022

Heure: 15:11 (18:11 UTC)

Prévision

Le bulletin a été fait il y a 2 heures et 41 minutes, à 15:30 UTC
Prévision valable du 19 à 18 UTC au 20 à 18 UTC
Vent 5 kt de est/sud-est
Visibilité 10 km ou plus
pas de nuages en-dessous de 1500 mètres et pas de cumulonimbus.

TAF: SBPA 191530Z 1918/2018 12005KT CAVOK TX17/1918Z TN08/2008Z RMK PE B

Observations et prévisions météorologiques de plus de 4000 aéroports (messages METAR et TAF).

Les stations disponibles sont représentées par des disques jaunes et rouges sur la carte.

Passer la souris dessus pour voir le nom de la station.

Cliquer dessus pour voir les observations et prévisions météorologiques.

Pour changer de carte: cliquez sur les boutons verts avec une croix noire pour zoomer, sur le bouton vert avec un tiret pour effectuer un zoom arrière, ou sur les flèches vertes pour les cartes adjacentes.


METAR-TAF: